sensor_id;sensor_type;location;lat;lon;timestamp;pressure;altitude;pressure_sealevel;temperature;humidity
54924;BME280;40825;52.270;20.984;2023-01-31T00:00:45;99263.38;;;1.50;100.00
54924;BME280;40825;52.270;20.984;2023-01-31T00:03:22;99263.15;;;1.50;100.00
54924;BME280;40825;52.270;20.984;2023-01-31T00:05:47;99268.05;;;1.52;100.00
54924;BME280;40825;52.270;20.984;2023-01-31T00:08:13;99273.99;;;1.54;100.00
54924;BME280;40825;52.270;20.984;2023-01-31T00:10:40;99280.38;;;1.55;100.00
54924;BME280;40825;52.270;20.984;2023-01-31T00:13:05;99281.38;;;1.56;100.00
54924;BME280;40825;52.270;20.984;2023-01-31T00:15:31;99285.91;;;1.56;100.00
54924;BME280;40825;52.270;20.984;2023-01-31T00:17:56;99283.86;;;1.57;100.00
54924;BME280;40825;52.270;20.984;2023-01-31T00:20:22;99288.10;;;1.58;100.00
54924;BME280;40825;52.270;20.984;2023-01-31T00:22:48;99288.05;;;1.59;100.00
54924;BME280;40825;52.270;20.984;2023-01-31T00:25:13;99290.02;;;1.60;100.00
54924;BME280;40825;52.270;20.984;2023-01-31T00:27:39;99294.11;;;1.61;100.00
54924;BME280;40825;52.270;20.984;2023-01-31T00:30:05;99295.95;;;1.62;100.00
54924;BME280;40825;52.270;20.984;2023-01-31T00:32:30;99295.40;;;1.63;100.00
54924;BME280;40825;52.270;20.984;2023-01-31T00:34:56;99301.30;;;1.63;100.00
54924;BME280;40825;52.270;20.984;2023-01-31T00:37:22;99303.62;;;1.63;100.00
54924;BME280;40825;52.270;20.984;2023-01-31T00:39:47;99304.51;;;1.64;100.00
54924;BME280;40825;52.270;20.984;2023-01-31T00:42:12;99309.08;;;1.66;100.00
54924;BME280;40825;52.270;20.984;2023-01-31T00:44:38;99311.49;;;1.67;100.00
54924;BME280;40825;52.270;20.984;2023-01-31T00:47:04;99319.17;;;1.67;100.00
54924;BME280;40825;52.270;20.984;2023-01-31T00:49:29;99321.06;;;1.68;100.00
54924;BME280;40825;52.270;20.984;2023-01-31T00:51:55;99324.23;;;1.68;100.00
54924;BME280;40825;52.270;20.984;2023-01-31T00:54:20;99325.59;;;1.68;100.00
54924;BME280;40825;52.270;20.984;2023-01-31T00:56:46;99331.25;;;1.69;100.00
54924;BME280;40825;52.270;20.984;2023-01-31T00:59:11;99335.34;;;1.70;100.00
54924;BME280;40825;52.270;20.984;2023-01-31T01:01:37;99332.73;;;1.70;100.00
54924;BME280;40825;52.270;20.984;2023-01-31T01:04:03;99330.96;;;1.70;100.00
54924;BME280;40825;52.270;20.984;2023-01-31T01:06:29;99335.23;;;1.71;100.00
54924;BME280;40825;52.270;20.984;2023-01-31T01:08:55;99340.43;;;1.72;100.00
54924;BME280;40825;52.270;20.984;2023-01-31T01:11:27;99344.89;;;1.73;100.00
54924;BME280;40825;52.270;20.984;2023-01-31T01:13:54;99340.67;;;1.73;100.00
54924;BME280;40825;52.270;20.984;2023-01-31T01:16:26;99342.79;;;1.74;100.00
54924;BME280;40825;52.270;20.984;2023-01-31T01:18:52;99342.46;;;1.76;100.00
54924;BME280;40825;52.270;20.984;2023-01-31T01:21:22;99345.10;;;1.76;100.00
54924;BME280;40825;52.270;20.984;2023-01-31T01:23:49;99343.11;;;1.76;100.00
54924;BME280;40825;52.270;20.984;2023-01-31T01:26:21;99340.55;;;1.76;100.00
54924;BME280;40825;52.270;20.984;2023-01-31T01:28:47;99337.84;;;1.75;100.00
54924;BME280;40825;52.270;20.984;2023-01-31T01:31:14;99338.60;;;1.74;100.00
54924;BME280;40825;52.270;20.984;2023-01-31T01:33:44;99338.20;;;1.73;100.00
54924;BME280;40825;52.270;20.984;2023-01-31T01:36:12;99341.16;;;1.70;100.00
54924;BME280;40825;52.270;20.984;2023-01-31T01:38:40;99348.31;;;1.67;100.00
54924;BME280;40825;52.270;20.984;2023-01-31T01:41:06;99350.38;;;1.63;100.00
54924;BME280;40825;52.270;20.984;2023-01-31T01:46:07;99361.33;;;1.56;100.00
54924;BME280;40825;52.270;20.984;2023-01-31T01:48:33;99364.38;;;1.54;100.00
54924;BME280;40825;52.270;20.984;2023-01-31T01:50:59;99363.48;;;1.52;100.00
54924;BME280;40825;52.270;20.984;2023-01-31T01:53:27;99367.95;;;1.51;100.00
54924;BME280;40825;52.270;20.984;2023-01-31T01:56:09;99372.06;;;1.52;100.00
54924;BME280;40825;52.270;20.984;2023-01-31T01:58:40;99377.20;;;1.53;100.00
54924;BME280;40825;52.270;20.984;2023-01-31T02:01:09;99382.54;;;1.56;100.00
54924;BME280;40825;52.270;20.984;2023-01-31T02:03:38;99384.32;;;1.58;100.00
54924;BME280;40825;52.270;20.984;2023-01-31T02:06:06;99391.19;;;1.59;100.00
54924;BME280;40825;52.270;20.984;2023-01-31T02:08:36;99388.48;;;1.61;100.00
54924;BME280;40825;52.270;20.984;2023-01-31T02:11:22;99395.46;;;1.63;100.00
54924;BME280;40825;52.270;20.984;2023-01-31T02:13:51;99400.02;;;1.67;100.00
54924;BME280;40825;52.270;20.984;2023-01-31T02:16:17;99408.87;;;1.70;100.00
54924;BME280;40825;52.270;20.984;2023-01-31T02:18:44;99413.52;;;1.71;100.00
54924;BME280;40825;52.270;20.984;2023-01-31T02:24:17;99424.61;;;1.74;100.00
54924;BME280;40825;52.270;20.984;2023-01-31T02:30:05;99430.98;;;1.76;100.00
54924;BME280;40825;52.270;20.984;2023-01-31T02:37:52;99447.22;;;1.81;100.00
54924;BME280;40825;52.270;20.984;2023-01-31T02:43:00;99446.92;;;1.82;100.00
54924;BME280;40825;52.270;20.984;2023-01-31T02:45:55;99448.58;;;1.83;100.00
54924;BME280;40825;52.270;20.984;2023-01-31T02:48:28;99455.21;;;1.83;100.00
54924;BME280;40825;52.270;20.984;2023-01-31T02:54:02;99466.38;;;1.87;100.00
54924;BME280;40825;52.270;20.984;2023-01-31T02:56:32;99472.44;;;1.90;100.00
54924;BME280;40825;52.270;20.984;2023-01-31T03:01:35;99479.21;;;1.94;100.00
54924;BME280;40825;52.270;20.984;2023-01-31T03:04:04;99486.19;;;1.96;100.00
54924;BME280;40825;52.270;20.984;2023-01-31T03:09:14;99495.67;;;2.00;100.00
54924;BME280;40825;52.270;20.984;2023-01-31T03:16:55;99506.23;;;2.06;100.00
54924;BME280;40825;52.270;20.984;2023-01-31T03:19:47;99511.63;;;2.09;100.00
54924;BME280;40825;52.270;20.984;2023-01-31T03:22:21;99517.91;;;2.11;100.00
54924;BME280;40825;52.270;20.984;2023-01-31T03:24:49;99515.29;;;2.12;100.00
54924;BME280;40825;52.270;20.984;2023-01-31T03:27:16;99527.61;;;2.13;100.00
54924;BME280;40825;52.270;20.984;2023-01-31T03:29:42;99533.26;;;2.16;100.00
54924;BME280;40825;52.270;20.984;2023-01-31T03:32:17;99535.63;;;2.19;100.00
54924;BME280;40825;52.270;20.984;2023-01-31T03:34:45;99538.27;;;2.21;100.00
54924;BME280;40825;52.270;20.984;2023-01-31T03:37:20;99544.46;;;2.22;99.97
54924;BME280;40825;52.270;20.984;2023-01-31T03:40:04;99545.09;;;2.23;99.99
54924;BME280;40825;52.270;20.984;2023-01-31T03:45:31;99541.71;;;2.25;100.00
54924;BME280;40825;52.270;20.984;2023-01-31T03:47:59;99543.55;;;2.26;99.63
54924;BME280;40825;52.270;20.984;2023-01-31T03:51:11;99547.58;;;2.26;99.33
54924;BME280;40825;52.270;20.984;2023-01-31T03:53:18;99552.02;;;2.27;99.17
54924;BME280;40825;52.270;20.984;2023-01-31T03:55:50;99545.95;;;2.28;99.51
54924;BME280;40825;52.270;20.984;2023-01-31T03:58:19;99546.83;;;2.28;99.15
54924;BME280;40825;52.270;20.984;2023-01-31T04:00:47;99551.08;;;2.28;98.94
54924;BME280;40825;52.270;20.984;2023-01-31T04:03:26;99553.88;;;2.28;98.44
54924;BME280;40825;52.270;20.984;2023-01-31T04:05:53;99554.00;;;2.29;97.86
54924;BME280;40825;52.270;20.984;2023-01-31T04:08:19;99550.44;;;2.29;98.08
54924;BME280;40825;52.270;20.984;2023-01-31T04:10:45;99553.75;;;2.29;98.10
54924;BME280;40825;52.270;20.984;2023-01-31T04:13:11;99556.92;;;2.29;98.27
54924;BME280;40825;52.270;20.984;2023-01-31T04:15:36;99556.42;;;2.29;98.18
54924;BME280;40825;52.270;20.984;2023-01-31T04:18:04;99560.79;;;2.29;98.19
54924;BME280;40825;52.270;20.984;2023-01-31T04:20:54;99559.17;;;2.28;98.23
54924;BME280;40825;52.270;20.984;2023-01-31T04:23:19;99565.36;;;2.27;98.18
54924;BME280;40825;52.270;20.984;2023-01-31T04:25:45;99573.69;;;2.27;97.24
54924;BME280;40825;52.270;20.984;2023-01-31T04:28:11;99579.88;;;2.26;97.00
54924;BME280;40825;52.270;20.984;2023-01-31T04:30:36;99587.34;;;2.26;97.24
54924;BME280;40825;52.270;20.984;2023-01-31T04:33:02;99591.72;;;2.26;97.84
54924;BME280;40825;52.270;20.984;2023-01-31T04:35:28;99593.35;;;2.25;97.22
54924;BME280;40825;52.270;20.984;2023-01-31T04:37:54;99597.34;;;2.24;96.59
54924;BME280;40825;52.270;20.984;2023-01-31T04:40:19;99597.00;;;2.20;96.24
54924;BME280;40825;52.270;20.984;2023-01-31T04:42:45;99597.54;;;2.16;95.94
54924;BME280;40825;52.270;20.984;2023-01-31T04:45:11;99604.70;;;2.13;95.63
54924;BME280;40825;52.270;20.984;2023-01-31T04:47:36;99607.92;;;2.09;96.09
54924;BME280;40825;52.270;20.984;2023-01-31T04:50:02;99614.52;;;2.06;95.46
54924;BME280;40825;52.270;20.984;2023-01-31T04:52:28;99610.97;;;2.03;95.52
54924;BME280;40825;52.270;20.984;2023-01-31T04:54:53;99613.80;;;2.01;95.19
54924;BME280;40825;52.270;20.984;2023-01-31T04:57:19;99620.20;;;2.00;95.78
54924;BME280;40825;52.270;20.984;2023-01-31T04:59:44;99622.84;;;2.00;95.41
54924;BME280;40825;52.270;20.984;2023-01-31T05:02:10;99625.10;;;1.99;96.16
54924;BME280;40825;52.270;20.984;2023-01-31T05:04:38;99628.27;;;1.97;95.37
54924;BME280;40825;52.270;20.984;2023-01-31T05:07:04;99631.30;;;1.95;95.48
54924;BME280;40825;52.270;20.984;2023-01-31T05:09:30;99635.73;;;1.93;95.16
54924;BME280;40825;52.270;20.984;2023-01-31T05:11:55;99643.07;;;1.91;95.78
54924;BME280;40825;52.270;20.984;2023-01-31T05:14:21;99645.14;;;1.91;96.24
54924;BME280;40825;52.270;20.984;2023-01-31T05:16:46;99649.94;;;1.90;95.82
54924;BME280;40825;52.270;20.984;2023-01-31T05:19:14;99652.92;;;1.90;96.17
54924;BME280;40825;52.270;20.984;2023-01-31T05:21:40;99660.62;;;1.93;96.55
54924;BME280;40825;52.270;20.984;2023-01-31T05:24:31;99663.95;;;1.94;95.79
54924;BME280;40825;52.270;20.984;2023-01-31T05:26:58;99670.38;;;1.95;96.16
54924;BME280;40825;52.270;20.984;2023-01-31T05:29:26;99676.65;;;1.98;95.05
54924;BME280;40825;52.270;20.984;2023-01-31T05:31:54;99678.77;;;1.99;94.13
54924;BME280;40825;52.270;20.984;2023-01-31T05:34:20;99683.58;;;2.00;93.35
54924;BME280;40825;52.270;20.984;2023-01-31T05:36:46;99690.20;;;2.00;94.09
54924;BME280;40825;52.270;20.984;2023-01-31T05:39:12;99695.08;;;2.02;95.02
54924;BME280;40825;52.270;20.984;2023-01-31T05:41:37;99690.85;;;2.05;93.69
54924;BME280;40825;52.270;20.984;2023-01-31T05:44:03;99702.17;;;2.05;93.93
54924;BME280;40825;52.270;20.984;2023-01-31T05:46:29;99702.95;;;2.07;94.17
54924;BME280;40825;52.270;20.984;2023-01-31T05:48:54;99705.55;;;2.07;93.84
54924;BME280;40825;52.270;20.984;2023-01-31T05:51:20;99710.61;;;2.07;93.72
54924;BME280;40825;52.270;20.984;2023-01-31T05:53:45;99711.60;;;2.06;93.77
54924;BME280;40825;52.270;20.984;2023-01-31T05:56:13;99717.39;;;2.04;92.85
54924;BME280;40825;52.270;20.984;2023-01-31T05:58:39;99720.40;;;2.02;93.45
54924;BME280;40825;52.270;20.984;2023-01-31T06:01:04;99724.00;;;2.01;93.63
54924;BME280;40825;52.270;20.984;2023-01-31T06:03:30;99728.60;;;2.01;93.43
54924;BME280;40825;52.270;20.984;2023-01-31T06:05:55;99740.70;;;1.99;93.37
54924;BME280;40825;52.270;20.984;2023-01-31T06:08:21;99744.02;;;1.99;92.22
54924;BME280;40825;52.270;20.984;2023-01-31T06:10:46;99744.65;;;1.98;92.18
54924;BME280;40825;52.270;20.984;2023-01-31T06:13:12;99751.65;;;1.98;92.46
54924;BME280;40825;52.270;20.984;2023-01-31T06:15:42;99755.54;;;2.00;92.65
54924;BME280;40825;52.270;20.984;2023-01-31T06:18:07;99757.48;;;2.00;93.12
54924;BME280;40825;52.270;20.984;2023-01-31T06:20:33;99760.55;;;2.01;93.28
54924;BME280;40825;52.270;20.984;2023-01-31T06:22:58;99764.09;;;2.02;92.45
54924;BME280;40825;52.270;20.984;2023-01-31T06:25:25;99768.67;;;2.04;92.36
54924;BME280;40825;52.270;20.984;2023-01-31T06:27:50;99775.70;;;2.06;92.39
54924;BME280;40825;52.270;20.984;2023-01-31T06:30:16;99776.04;;;2.06;92.40
54924;BME280;40825;52.270;20.984;2023-01-31T06:32:41;99777.73;;;2.06;92.14
54924;BME280;40825;52.270;20.984;2023-01-31T06:35:07;99782.35;;;2.06;91.79
54924;BME280;40825;52.270;20.984;2023-01-31T06:37:33;99787.23;;;2.06;92.29
54924;BME280;40825;52.270;20.984;2023-01-31T06:39:59;99792.83;;;2.06;92.57
54924;BME280;40825;52.270;20.984;2023-01-31T06:42:24;99796.30;;;2.09;93.01
54924;BME280;40825;52.270;20.984;2023-01-31T06:44:49;99799.05;;;2.09;93.06
54924;BME280;40825;52.270;20.984;2023-01-31T06:47:15;99800.08;;;2.11;92.99
54924;BME280;40825;52.270;20.984;2023-01-31T06:49:41;99806.04;;;2.11;92.99
54924;BME280;40825;52.270;20.984;2023-01-31T06:52:06;99809.59;;;2.11;91.04
54924;BME280;40825;52.270;20.984;2023-01-31T06:54:32;99810.69;;;2.09;91.15
54924;BME280;40825;52.270;20.984;2023-01-31T06:56:57;99815.04;;;2.09;92.40
54924;BME280;40825;52.270;20.984;2023-01-31T06:59:23;99815.30;;;2.10;91.09
54924;BME280;40825;52.270;20.984;2023-01-31T07:01:48;99815.08;;;2.11;92.50
54924;BME280;40825;52.270;20.984;2023-01-31T07:04:14;99819.48;;;2.12;90.51
54924;BME280;40825;52.270;20.984;2023-01-31T07:06:39;99821.96;;;2.12;92.09
54924;BME280;40825;52.270;20.984;2023-01-31T07:09:05;99827.01;;;2.12;91.55
54924;BME280;40825;52.270;20.984;2023-01-31T07:11:31;99832.29;;;2.14;91.46
54924;BME280;40825;52.270;20.984;2023-01-31T07:13:57;99838.06;;;2.16;92.41
54924;BME280;40825;52.270;20.984;2023-01-31T07:16:22;99848.20;;;2.18;91.83
54924;BME280;40825;52.270;20.984;2023-01-31T07:18:53;99852.40;;;2.20;90.94
54924;BME280;40825;52.270;20.984;2023-01-31T07:21:20;99860.05;;;2.23;91.71
54924;BME280;40825;52.270;20.984;2023-01-31T07:23:45;99862.54;;;2.25;92.24
54924;BME280;40825;52.270;20.984;2023-01-31T07:26:11;99865.41;;;2.26;90.52
54924;BME280;40825;52.270;20.984;2023-01-31T07:28:37;99875.80;;;2.27;91.10
54924;BME280;40825;52.270;20.984;2023-01-31T07:31:06;99880.52;;;2.29;90.97
54924;BME280;40825;52.270;20.984;2023-01-31T07:33:35;99881.40;;;2.31;90.84
54924;BME280;40825;52.270;20.984;2023-01-31T07:36:02;99879.81;;;2.33;90.78
54924;BME280;40825;52.270;20.984;2023-01-31T07:38:30;99880.17;;;2.36;91.44
54924;BME280;40825;52.270;20.984;2023-01-31T07:40:59;99879.01;;;2.39;91.23
54924;BME280;40825;52.270;20.984;2023-01-31T07:43:26;99886.55;;;2.43;91.28
54924;BME280;40825;52.270;20.984;2023-01-31T07:45:52;99887.51;;;2.46;90.19
54924;BME280;40825;52.270;20.984;2023-01-31T07:48:19;99892.89;;;2.48;90.26
54924;BME280;40825;52.270;20.984;2023-01-31T07:51:07;99893.85;;;2.49;90.38
54924;BME280;40825;52.270;20.984;2023-01-31T07:53:35;99899.65;;;2.53;90.26
54924;BME280;40825;52.270;20.984;2023-01-31T07:56:11;99904.92;;;2.57;90.40
54924;BME280;40825;52.270;20.984;2023-01-31T07:58:39;99909.01;;;2.60;89.77
54924;BME280;40825;52.270;20.984;2023-01-31T08:01:06;99917.27;;;2.61;89.78
54924;BME280;40825;52.270;20.984;2023-01-31T08:03:51;99921.70;;;2.61;89.25
54924;BME280;40825;52.270;20.984;2023-01-31T08:06:16;99925.52;;;2.62;89.16
54924;BME280;40825;52.270;20.984;2023-01-31T08:08:43;99927.89;;;2.61;88.91
54924;BME280;40825;52.270;20.984;2023-01-31T08:11:09;99928.73;;;2.63;88.82
54924;BME280;40825;52.270;20.984;2023-01-31T08:13:36;99932.36;;;2.64;88.50
54924;BME280;40825;52.270;20.984;2023-01-31T08:16:04;99935.71;;;2.67;89.52
54924;BME280;40825;52.270;20.984;2023-01-31T08:18:30;99940.84;;;2.68;87.11
54924;BME280;40825;52.270;20.984;2023-01-31T08:20:56;99948.91;;;2.69;87.44
54924;BME280;40825;52.270;20.984;2023-01-31T08:23:22;99950.10;;;2.69;87.77
54924;BME280;40825;52.270;20.984;2023-01-31T08:25:48;99958.88;;;2.71;86.55
54924;BME280;40825;52.270;20.984;2023-01-31T08:28:14;99960.80;;;2.68;86.66
54924;BME280;40825;52.270;20.984;2023-01-31T08:30:40;99961.62;;;2.68;86.34
54924;BME280;40825;52.270;20.984;2023-01-31T08:33:07;99969.90;;;2.69;85.89
54924;BME280;40825;52.270;20.984;2023-01-31T08:35:33;99968.77;;;2.70;86.78
54924;BME280;40825;52.270;20.984;2023-01-31T08:37:59;99976.48;;;2.74;87.20
54924;BME280;40825;52.270;20.984;2023-01-31T08:40:24;99972.38;;;2.77;85.93
54924;BME280;40825;52.270;20.984;2023-01-31T08:42:57;99979.70;;;2.78;86.28
54924;BME280;40825;52.270;20.984;2023-01-31T08:45:23;99979.52;;;2.79;85.65
54924;BME280;40825;52.270;20.984;2023-01-31T08:47:57;99980.80;;;2.81;84.42
54924;BME280;40825;52.270;20.984;2023-01-31T08:50:24;99987.33;;;2.84;83.93
54924;BME280;40825;52.270;20.984;2023-01-31T08:53:01;99989.13;;;2.84;83.27
54924;BME280;40825;52.270;20.984;2023-01-31T08:55:29;99986.45;;;2.87;84.66
54924;BME280;40825;52.270;20.984;2023-01-31T08:57:56;99986.41;;;2.95;84.49
54924;BME280;40825;52.270;20.984;2023-01-31T09:00:22;99988.11;;;2.98;83.88
54924;BME280;40825;52.270;20.984;2023-01-31T09:02:56;99986.83;;;3.00;82.89
54924;BME280;40825;52.270;20.984;2023-01-31T09:05:22;99995.63;;;2.98;81.83
54924;BME280;40825;52.270;20.984;2023-01-31T09:07:49;99991.61;;;2.98;81.23
54924;BME280;40825;52.270;20.984;2023-01-31T09:10:18;99990.60;;;2.99;81.28
54924;BME280;40825;52.270;20.984;2023-01-31T09:12:44;99994.30;;;2.99;80.92
54924;BME280;40825;52.270;20.984;2023-01-31T09:15:10;99994.03;;;3.00;81.13
54924;BME280;40825;52.270;20.984;2023-01-31T09:17:37;100003.75;;;3.03;82.50
54924;BME280;40825;52.270;20.984;2023-01-31T09:20:03;100002.39;;;3.10;82.67
54924;BME280;40825;52.270;20.984;2023-01-31T09:22:32;100001.90;;;3.14;81.86
54924;BME280;40825;52.270;20.984;2023-01-31T09:24:59;100004.23;;;3.14;81.35
54924;BME280;40825;52.270;20.984;2023-01-31T09:27:26;100009.63;;;3.11;79.79
54924;BME280;40825;52.270;20.984;2023-01-31T09:29:52;100015.00;;;3.03;80.28
54924;BME280;40825;52.270;20.984;2023-01-31T09:32:18;100017.57;;;2.97;80.20
54924;BME280;40825;52.270;20.984;2023-01-31T09:34:44;100021.24;;;2.91;79.63
54924;BME280;40825;52.270;20.984;2023-01-31T09:37:11;100024.42;;;2.87;79.65
54924;BME280;40825;52.270;20.984;2023-01-31T09:39:37;100026.10;;;2.85;79.91
54924;BME280;40825;52.270;20.984;2023-01-31T09:42:36;100028.63;;;2.81;80.94
54924;BME280;40825;52.270;20.984;2023-01-31T09:45:10;100027.88;;;2.84;81.07
54924;BME280;40825;52.270;20.984;2023-01-31T09:47:42;100032.52;;;2.89;81.84
54924;BME280;40825;52.270;20.984;2023-01-31T09:52:44;100033.17;;;2.95;80.46
54924;BME280;40825;52.270;20.984;2023-01-31T09:55:17;100030.77;;;3.02;80.34
54924;BME280;40825;52.270;20.984;2023-01-31T09:58:05;100032.87;;;3.07;79.38
54924;BME280;40825;52.270;20.984;2023-01-31T10:00:47;100035.27;;;3.06;82.01
54924;BME280;40825;52.270;20.984;2023-01-31T10:03:34;100033.25;;;3.09;79.61
54924;BME280;40825;52.270;20.984;2023-01-31T10:08:50;100032.59;;;3.14;79.00
54924;BME280;40825;52.270;20.984;2023-01-31T10:11:28;100033.67;;;3.14;77.62
54924;BME280;40825;52.270;20.984;2023-01-31T10:14:00;100037.27;;;3.11;78.03
54924;BME280;40825;52.270;20.984;2023-01-31T10:16:37;100032.98;;;3.08;76.86
54924;BME280;40825;52.270;20.984;2023-01-31T10:19:15;100029.61;;;3.07;77.11
54924;BME280;40825;52.270;20.984;2023-01-31T10:21:46;100030.80;;;3.07;77.21
54924;BME280;40825;52.270;20.984;2023-01-31T10:24:26;100034.77;;;3.09;77.52
54924;BME280;40825;52.270;20.984;2023-01-31T10:26:59;100037.92;;;3.13;77.83
54924;BME280;40825;52.270;20.984;2023-01-31T10:29:32;100031.52;;;3.10;76.60
54924;BME280;40825;52.270;20.984;2023-01-31T10:32:05;100035.24;;;3.12;76.51
54924;BME280;40825;52.270;20.984;2023-01-31T10:34:46;100036.23;;;3.14;76.81
54924;BME280;40825;52.270;20.984;2023-01-31T10:37:28;100034.27;;;3.20;77.36
54924;BME280;40825;52.270;20.984;2023-01-31T10:42:33;100026.13;;;3.37;76.59
54924;BME280;40825;52.270;20.984;2023-01-31T10:47:36;100029.54;;;3.36;75.99
54924;BME280;40825;52.270;20.984;2023-01-31T10:55:38;100029.59;;;3.42;76.74
54924;BME280;40825;52.270;20.984;2023-01-31T10:58:18;100025.34;;;3.53;76.13
54924;BME280;40825;52.270;20.984;2023-01-31T11:00:46;100022.98;;;3.61;76.32
54924;BME280;40825;52.270;20.984;2023-01-31T11:03:13;100018.91;;;3.67;74.74
54924;BME280;40825;52.270;20.984;2023-01-31T11:05:49;100017.80;;;3.68;73.14
54924;BME280;40825;52.270;20.984;2023-01-31T11:08:35;100011.98;;;3.66;73.41
54924;BME280;40825;52.270;20.984;2023-01-31T11:11:08;100013.25;;;3.64;73.51
54924;BME280;40825;52.270;20.984;2023-01-31T11:13:34;100018.20;;;3.65;73.64
54924;BME280;40825;52.270;20.984;2023-01-31T11:16:00;100023.55;;;3.65;74.86
54924;BME280;40825;52.270;20.984;2023-01-31T11:18:31;100025.38;;;3.66;74.12
54924;BME280;40825;52.270;20.984;2023-01-31T11:20:58;100025.89;;;3.60;72.61
54924;BME280;40825;52.270;20.984;2023-01-31T11:23:28;100025.48;;;3.54;71.26
54924;BME280;40825;52.270;20.984;2023-01-31T11:25:55;100028.90;;;3.46;71.58
54924;BME280;40825;52.270;20.984;2023-01-31T11:28:33;100029.20;;;3.41;71.52
54924;BME280;40825;52.270;20.984;2023-01-31T11:31:00;100029.70;;;3.36;71.95
54924;BME280;40825;52.270;20.984;2023-01-31T11:33:54;100034.14;;;3.29;71.58
54924;BME280;40825;52.270;20.984;2023-01-31T11:36:20;100036.73;;;3.22;72.40
54924;BME280;40825;52.270;20.984;2023-01-31T11:38:49;100038.52;;;3.20;73.35
54924;BME280;40825;52.270;20.984;2023-01-31T11:46:56;100037.72;;;3.15;70.20
54924;BME280;40825;52.270;20.984;2023-01-31T11:49:38;100035.73;;;3.16;70.18
54924;BME280;40825;52.270;20.984;2023-01-31T11:54:36;100033.40;;;3.24;72.52
54924;BME280;40825;52.270;20.984;2023-01-31T11:57:13;100027.93;;;3.33;73.68
54924;BME280;40825;52.270;20.984;2023-01-31T11:59:39;100026.84;;;3.40;74.48
54924;BME280;40825;52.270;20.984;2023-01-31T12:02:05;100025.19;;;3.43;73.12
54924;BME280;40825;52.270;20.984;2023-01-31T12:04:40;100016.08;;;3.44;71.73
54924;BME280;40825;52.270;20.984;2023-01-31T12:07:27;100011.06;;;3.43;72.68
54924;BME280;40825;52.270;20.984;2023-01-31T12:09:56;100012.39;;;3.44;71.92
54924;BME280;40825;52.270;20.984;2023-01-31T12:12:28;100006.12;;;3.47;72.11
54924;BME280;40825;52.270;20.984;2023-01-31T12:15:04;100004.69;;;3.56;72.42
54924;BME280;40825;52.270;20.984;2023-01-31T12:17:39;99997.56;;;3.64;69.63
54924;BME280;40825;52.270;20.984;2023-01-31T12:25:19;99998.41;;;3.83;73.90
54924;BME280;40825;52.270;20.984;2023-01-31T12:38:29;99987.29;;;3.96;71.38
54924;BME280;40825;52.270;20.984;2023-01-31T12:47:34;99982.88;;;3.80;68.52
54924;BME280;40825;52.270;20.984;2023-01-31T12:58:27;99987.83;;;3.47;67.97
54924;BME280;40825;52.270;20.984;2023-01-31T13:01:00;99988.10;;;3.39;68.55
54924;BME280;40825;52.270;20.984;2023-01-31T13:06:20;99983.71;;;3.30;67.16
54924;BME280;40825;52.270;20.984;2023-01-31T13:09:11;99984.33;;;3.20;67.59
54924;BME280;40825;52.270;20.984;2023-01-31T13:11:47;99986.91;;;3.13;68.06
54924;BME280;40825;52.270;20.984;2023-01-31T13:14:19;99985.09;;;3.11;69.64
54924;BME280;40825;52.270;20.984;2023-01-31T13:16:46;99978.61;;;3.09;69.16
54924;BME280;40825;52.270;20.984;2023-01-31T13:19:50;99976.13;;;3.03;69.03
54924;BME280;40825;52.270;20.984;2023-01-31T13:24:57;99978.88;;;2.98;68.69
54924;BME280;40825;52.270;20.984;2023-01-31T13:27:28;99972.11;;;2.99;69.24
54924;BME280;40825;52.270;20.984;2023-01-31T13:29:59;99968.58;;;3.03;71.19
54924;BME280;40825;52.270;20.984;2023-01-31T13:32:39;99962.73;;;3.09;72.34
54924;BME280;40825;52.270;20.984;2023-01-31T13:35:34;99965.45;;;3.15;71.01
54924;BME280;40825;52.270;20.984;2023-01-31T13:38:07;99965.88;;;3.20;71.97
54924;BME280;40825;52.270;20.984;2023-01-31T13:40:47;99966.73;;;3.22;71.94
54924;BME280;40825;52.270;20.984;2023-01-31T13:43:15;99962.89;;;3.22;72.84
54924;BME280;40825;52.270;20.984;2023-01-31T13:45:44;99959.05;;;3.21;74.29
54924;BME280;40825;52.270;20.984;2023-01-31T13:51:06;99957.60;;;3.20;72.94
54924;BME280;40825;52.270;20.984;2023-01-31T13:53:49;99965.17;;;3.20;72.77
54924;BME280;40825;52.270;20.984;2023-01-31T13:56:25;99972.52;;;3.17;71.72
54924;BME280;40825;52.270;20.984;2023-01-31T13:58:54;99971.20;;;3.12;72.11
54924;BME280;40825;52.270;20.984;2023-01-31T14:01:25;99974.46;;;3.09;73.95
54924;BME280;40825;52.270;20.984;2023-01-31T14:14:48;99973.98;;;3.06;72.75
54924;BME280;40825;52.270;20.984;2023-01-31T14:22:33;99974.11;;;2.90;71.97
54924;BME280;40825;52.270;20.984;2023-01-31T14:30:40;99968.12;;;2.77;72.61
54924;BME280;40825;52.270;20.984;2023-01-31T14:33:16;99971.86;;;2.75;73.27
54924;BME280;40825;52.270;20.984;2023-01-31T14:38:40;99971.92;;;2.69;72.42
54924;BME280;40825;52.270;20.984;2023-01-31T14:52:42;99966.49;;;2.57;72.11
54924;BME280;40825;52.270;20.984;2023-01-31T14:57:46;99964.25;;;2.50;72.87
54924;BME280;40825;52.270;20.984;2023-01-31T15:13:42;99951.09;;;2.46;74.78
54924;BME280;40825;52.270;20.984;2023-01-31T15:16:31;99949.28;;;2.45;75.21
54924;BME280;40825;52.270;20.984;2023-01-31T15:19:07;99950.02;;;2.42;74.82
54924;BME280;40825;52.270;20.984;2023-01-31T15:21:41;99950.61;;;2.40;74.62
54924;BME280;40825;52.270;20.984;2023-01-31T15:24:19;99953.77;;;2.38;74.99
54924;BME280;40825;52.270;20.984;2023-01-31T15:26:49;99953.85;;;2.35;75.02
54924;BME280;40825;52.270;20.984;2023-01-31T15:29:23;99954.05;;;2.33;75.56
54924;BME280;40825;52.270;20.984;2023-01-31T15:31:53;99949.92;;;2.31;74.85
54924;BME280;40825;52.270;20.984;2023-01-31T15:34:26;99948.41;;;2.28;75.47
54924;BME280;40825;52.270;20.984;2023-01-31T15:37:03;99953.05;;;2.25;74.78